createdAt,value
2023-05-12T00:01:29.720Z,100445.45
2023-05-12T00:06:33.336Z,100443.60
2023-05-12T00:11:38.544Z,100442.05
2023-05-12T00:16:42.355Z,100438.92
2023-05-12T00:21:46.464Z,100438.78
2023-05-12T00:26:50.093Z,100439.44
2023-05-12T00:31:53.864Z,100438.96
2023-05-12T00:36:57.749Z,100437.52
2023-05-12T00:42:04.837Z,100443.56
2023-05-12T00:47:09.658Z,100444.59
2023-05-12T00:52:13.500Z,100444.32
2023-05-12T00:57:19.694Z,100445.71
2023-05-12T01:02:23.547Z,100452.13
2023-05-12T01:07:28.458Z,100456.63
2023-05-12T01:12:33.982Z,100458.13
2023-05-12T01:17:43.702Z,100454.52
2023-05-12T01:22:48.822Z,100462.00
2023-05-12T01:27:53.399Z,100458.38
2023-05-12T01:32:58.940Z,100458.11
2023-05-12T01:38:03.541Z,100465.69
2023-05-12T01:43:13.043Z,100467.55
2023-05-12T01:48:16.709Z,100466.07
2023-05-12T01:53:20.831Z,100469.95
2023-05-12T01:58:25.456Z,100469.80
2023-05-12T02:03:30.365Z,100466.60
2023-05-12T02:08:34.359Z,100469.74
2023-05-12T02:13:38.156Z,100472.70
2023-05-12T02:18:42.465Z,100472.89
2023-05-12T02:23:47.459Z,100475.58
2023-05-12T02:28:51.781Z,100478.88
2023-05-12T02:34:00.184Z,100475.66
2023-05-12T02:39:04.179Z,100475.55
2023-05-12T02:44:09.251Z,100483.97
2023-05-12T02:49:13.388Z,100488.81
2023-05-12T02:54:17.219Z,100490.96
2023-05-12T02:59:23.758Z,100487.63
2023-05-12T03:04:27.621Z,100491.51
2023-05-12T03:09:31.377Z,100492.17
2023-05-12T03:14:35.154Z,100493.40
2023-05-12T03:19:39.111Z,100495.38
2023-05-12T03:24:42.739Z,100496.02
2023-05-12T03:29:46.459Z,100498.13
2023-05-12T03:34:50.078Z,100498.31
2023-05-12T03:39:56.351Z,100498.24
2023-05-12T03:45:00.579Z,100502.88
2023-05-12T03:50:04.633Z,100505.86
2023-05-12T03:55:09.506Z,100511.64
2023-05-12T04:00:14.003Z,100511.01
2023-05-12T04:05:21.165Z,100520.23
2023-05-12T04:10:24.905Z,100521.27
2023-05-12T04:15:28.703Z,100524.89
2023-05-12T04:20:32.558Z,100523.57
2023-05-12T04:25:40.735Z,100528.88
2023-05-12T04:30:44.627Z,100533.70
2023-05-12T04:35:48.448Z,100530.42
2023-05-12T04:40:53.733Z,100534.28
2023-05-12T04:45:59.940Z,100535.80
2023-05-12T04:51:07.164Z,100539.58
2023-05-12T04:56:11.034Z,100540.17
2023-05-12T05:01:16.586Z,100544.02
2023-05-12T05:06:22.083Z,100547.23
2023-05-12T05:11:28.477Z,100548.44
2023-05-12T05:16:32.334Z,100550.29
2023-05-12T05:21:36.317Z,100554.21
2023-05-12T05:26:41.013Z,100556.70
2023-05-12T05:31:45.184Z,100553.07
2023-05-12T05:36:49.137Z,100553.30
2023-05-12T05:41:53.086Z,100551.33
2023-05-12T05:46:57.030Z,100552.30
2023-05-12T05:52:02.804Z,100554.96
2023-05-12T05:57:06.874Z,100555.66
2023-05-12T06:02:11.261Z,100563.02
2023-05-12T06:07:14.904Z,100567.69
2023-05-12T06:12:19.398Z,100567.92
2023-05-12T06:17:23.209Z,100562.90
2023-05-12T06:22:26.928Z,100561.84
2023-05-12T06:27:30.716Z,100562.38
2023-05-12T06:32:34.525Z,100563.32
2023-05-12T06:37:38.713Z,100565.27
2023-05-12T06:42:42.329Z,100571.30
2023-05-12T06:47:46.395Z,100573.34
2023-05-12T06:52:50.827Z,100569.21
2023-05-12T06:57:56.320Z,100566.38
2023-05-12T07:03:00.116Z,100566.70
2023-05-12T07:08:04.318Z,100568.49
2023-05-12T07:13:08.144Z,100565.50
2023-05-12T07:18:11.887Z,100560.52
2023-05-12T07:23:16.994Z,100557.08
2023-05-12T07:28:20.673Z,100556.17
2023-05-12T07:33:24.377Z,100557.04
2023-05-12T07:38:28.125Z,100554.29
2023-05-12T07:43:31.754Z,100557.13
2023-05-12T07:48:40.141Z,100558.83
2023-05-12T07:53:43.996Z,100557.52
2023-05-12T07:58:48.062Z,100556.87
2023-05-12T08:03:52.042Z,100555.80
2023-05-12T08:08:58.504Z,100559.98
2023-05-12T08:14:02.404Z,100560.42
2023-05-12T08:19:05.927Z,100557.15
2023-05-12T08:24:09.843Z,100551.67
2023-05-12T08:29:13.685Z,100549.76
2023-05-12T08:34:17.459Z,100551.38
2023-05-12T08:39:21.998Z,100552.51
2023-05-12T08:44:26.064Z,100552.52
2023-05-12T08:49:32.722Z,100555.46
2023-05-12T08:54:48.656Z,100557.33
2023-05-12T09:00:01.891Z,100565.70
2023-05-12T09:05:06.024Z,100557.71
2023-05-12T09:10:29.943Z,100555.58
2023-05-12T09:15:46.250Z,100556.09
2023-05-12T09:20:50.160Z,100552.96
2023-05-12T09:26:05.678Z,100549.16
2023-05-12T09:31:21.833Z,100547.36
2023-05-12T09:36:26.262Z,100545.05
2023-05-12T09:41:30.020Z,100550.77
2023-05-12T09:46:34.201Z,100547.88
2023-05-12T09:51:38.376Z,100537.92
2023-05-12T09:56:44.769Z,100539.50
2023-05-12T10:01:49.658Z,100537.88
2023-05-12T10:06:54.250Z,100533.77
2023-05-12T10:11:58.793Z,100528.28
2023-05-12T10:17:03.177Z,100525.27
2023-05-12T10:22:13.891Z,100521.67
2023-05-12T10:27:18.569Z,100520.14
2023-05-12T10:32:22.407Z,100522.56
2023-05-12T10:37:29.596Z,100518.48
2023-05-12T10:42:43.599Z,100519.98
2023-05-12T10:47:47.448Z,100520.04
2023-05-12T10:52:55.742Z,100517.15
2023-05-12T10:58:13.397Z,100515.61
2023-05-12T11:03:25.531Z,100512.93
2023-05-12T11:08:30.877Z,100507.91
2023-05-12T11:13:36.126Z,100514.52
2023-05-12T11:18:39.897Z,100511.02
2023-05-12T11:23:43.761Z,100507.27
2023-05-12T11:28:48.167Z,100507.11
2023-05-12T11:34:11.983Z,100502.73
2023-05-12T11:39:23.451Z,100506.61
2023-05-12T11:44:27.156Z,100506.45
2023-05-12T11:49:31.832Z,100509.77
2023-05-12T11:54:36.113Z,100509.71
2023-05-12T11:59:39.847Z,100511.50
2023-05-12T12:04:43.865Z,100513.00
2023-05-12T12:09:47.625Z,100511.33
2023-05-12T12:14:51.343Z,100511.89
2023-05-12T12:19:55.041Z,100505.98
2023-05-12T12:24:58.933Z,100507.73
2023-05-12T12:30:03.229Z,100508.98
2023-05-12T12:35:07.690Z,100511.00
2023-05-12T12:40:12.523Z,100507.85
2023-05-12T12:45:16.977Z,100502.71
2023-05-12T12:50:23.895Z,100505.17
2023-05-12T12:55:28.992Z,100495.23
2023-05-12T13:00:33.234Z,100495.65
2023-05-12T13:05:37.145Z,100499.51
2023-05-12T13:10:42.386Z,100505.27
2023-05-12T13:15:46.262Z,100501.06
2023-05-12T13:20:50.195Z,100498.23
2023-05-12T13:25:54.124Z,100501.61
2023-05-12T13:30:58.521Z,100495.99
2023-05-12T13:36:02.321Z,100493.33
2023-05-12T13:41:06.104Z,100496.42
2023-05-12T13:46:09.974Z,100491.88
2023-05-12T13:51:14.657Z,100490.23
2023-05-12T13:56:18.552Z,100487.25
2023-05-12T14:01:22.485Z,100483.92
2023-05-12T14:06:27.558Z,100486.73
2023-05-12T14:11:31.384Z,100491.55
2023-05-12T14:16:35.495Z,100487.01
2023-05-12T14:21:41.375Z,100487.01
2023-05-12T14:26:45.208Z,100487.68
2023-05-12T14:31:49.040Z,100495.98
2023-05-12T14:36:52.955Z,100490.00
2023-05-12T14:41:56.771Z,100492.80
2023-05-12T14:47:01.233Z,100490.77
2023-05-12T14:52:06.029Z,100494.94
2023-05-12T14:57:10.894Z,100494.12
2023-05-12T15:02:14.664Z,100488.14
2023-05-12T15:07:18.363Z,100492.39
2023-05-12T15:12:22.480Z,100492.60
2023-05-12T15:17:27.741Z,100498.02
2023-05-12T15:22:33.758Z,100499.10
2023-05-12T15:27:37.791Z,100496.35
2023-05-12T15:32:43.212Z,100494.98
2023-05-12T15:37:47.141Z,100494.00
2023-05-12T15:42:50.931Z,100494.89
2023-05-12T15:47:54.926Z,100497.77
2023-05-12T15:52:58.982Z,100495.65
2023-05-12T15:58:03.930Z,100497.19
2023-05-12T16:03:08.278Z,100496.60
2023-05-12T16:08:14.472Z,100496.60
2023-05-12T16:13:18.252Z,100492.10
2023-05-12T16:18:22.113Z,100495.11
2023-05-12T16:23:26.649Z,100495.30
2023-05-12T16:28:32.381Z,100496.17
2023-05-12T16:33:36.357Z,100501.15
2023-05-12T16:38:40.229Z,100501.05
2023-05-12T16:43:46.141Z,100506.41
2023-05-12T16:48:51.190Z,100510.06
2023-05-12T16:53:55.051Z,100516.29
2023-05-12T16:59:00.604Z,100516.92
2023-05-12T17:04:04.606Z,100516.73
2023-05-12T17:09:08.703Z,100523.73
2023-05-12T17:14:12.897Z,100520.19
2023-05-12T17:19:16.604Z,100525.99
2023-05-12T17:24:21.064Z,100534.66
2023-05-12T17:29:24.785Z,100539.09
2023-05-12T17:34:36.954Z,100540.49
2023-05-12T17:39:42.784Z,100548.73
2023-05-12T17:44:46.723Z,100560.53
2023-05-12T17:49:52.861Z,100563.79
2023-05-12T17:54:58.020Z,100571.44
2023-05-12T18:00:10.250Z,100578.61
2023-05-12T18:05:22.077Z,100584.11
2023-05-12T18:10:26.245Z,100583.89
2023-05-12T18:15:30.719Z,100592.33
2023-05-12T18:20:37.749Z,100600.02
2023-05-12T18:25:44.256Z,100606.92
2023-05-12T18:30:48.145Z,100607.89
2023-05-12T18:35:52.188Z,100611.59
2023-05-12T18:40:56.848Z,100616.29
2023-05-12T18:46:01.866Z,100622.29
2023-05-12T18:51:06.438Z,100631.80
2023-05-12T18:56:10.861Z,100636.55
2023-05-12T19:01:15.161Z,100648.90
2023-05-12T19:06:19.099Z,100654.41
2023-05-12T19:11:23.267Z,100661.46
2023-05-12T19:16:27.381Z,100665.89
2023-05-12T19:21:33.139Z,100673.50
2023-05-12T19:26:38.139Z,100676.75
2023-05-12T19:31:42.508Z,100675.61
2023-05-12T19:36:47.246Z,100681.56
2023-05-12T19:41:52.252Z,100689.25
2023-05-12T19:47:00.160Z,100696.26
2023-05-12T19:52:06.136Z,100696.73
2023-05-12T19:57:10.537Z,100702.68
2023-05-12T20:02:19.836Z,100701.64
2023-05-12T20:07:23.856Z,100705.59
2023-05-12T20:12:28.027Z,100710.98
2023-05-12T20:17:31.884Z,100713.17
2023-05-12T20:22:35.649Z,100711.46
2023-05-12T20:27:39.398Z,100711.52
2023-05-12T20:32:44.235Z,100710.35
2023-05-12T20:37:49.061Z,100715.36
2023-05-12T20:42:53.185Z,100713.69
2023-05-12T20:47:57.058Z,100715.50
2023-05-12T20:53:01.356Z,100718.47
2023-05-12T20:58:05.071Z,100725.79
2023-05-12T21:03:14.741Z,100722.95
2023-05-12T21:08:19.198Z,100728.45
2023-05-12T21:13:23.045Z,100730.36
2023-05-12T21:18:27.333Z,100737.38
2023-05-12T21:23:31.442Z,100735.30
2023-05-12T21:28:35.125Z,100738.69
2023-05-12T21:33:39.662Z,100742.09
2023-05-12T21:38:43.636Z,100748.05
2023-05-12T21:43:50.229Z,100748.84
2023-05-12T21:48:54.314Z,100748.13
2023-05-12T21:53:58.818Z,100749.86
2023-05-12T21:59:03.885Z,100750.48
2023-05-12T22:04:08.046Z,100752.56
2023-05-12T22:09:12.031Z,100750.81
2023-05-12T22:14:16.605Z,100743.92
2023-05-12T22:19:20.233Z,100746.17
2023-05-12T22:24:24.218Z,100743.79
2023-05-12T22:29:27.958Z,100744.83
2023-05-12T22:34:31.697Z,100738.66
2023-05-12T22:39:35.302Z,100740.60
2023-05-12T22:44:39.478Z,100739.80
2023-05-12T22:49:43.757Z,100738.77
2023-05-12T22:54:47.451Z,100737.88
2023-05-12T22:59:51.465Z,100736.45
2023-05-12T23:04:55.900Z,100735.09
2023-05-12T23:09:59.741Z,100730.96
2023-05-12T23:15:05.477Z,100733.05
2023-05-12T23:20:10.319Z,100729.16
2023-05-12T23:25:14.045Z,100728.77
2023-05-12T23:30:17.955Z,100728.79
2023-05-12T23:35:21.627Z,100726.55
2023-05-12T23:40:25.396Z,100723.61
2023-05-12T23:45:29.199Z,100722.89
2023-05-12T23:50:32.962Z,100722.63
2023-05-12T23:55:37.782Z,100725.09
